Terminal Aerodrome Forecast
Issued by NWS Goodland, KS

Home | Current Version | Previous Version | Text Only | Print | Product List | Glossary On
Versions: 1 2 3 4 5 6 7 8 9 10 11 12 13 14 15 16 17 18 19 20 21 22
000
FTUS43 KGLD 032336
TAFGLD
TAF
KGLD 032336Z 0400/0424 08011KT P6SM SCT150
     FM040400 06008KT P6SM VCTS BKN100CB
     FM040800 09010KT 3SM TSRA BR OVC040CB
     FM041000 10011KT 6SM BR VCTS OVC008CB
     FM041200 12008KT 3SM BR OVC008
     FM041600 07011KT P6SM SCT060=

USA.gov is the U.S. government's official web portal to all federal, state and local government web resources and services.